PWSweather.com
Personal Weather Stations
Station Observations

AwhituWaiuku, CA 268400

Lat: -37.058, Lon: -174.6346

Elevation: 250

Station Type: Personal

http://www.weather-display.com/windy/gb/grahamsbeach.htm

Latest ConditionsUpdated 10:30:36 AM GMT-12:48 Tuesday, Jul 29, 2014
Currently Today's Max Today's Min Today's Average
Temperature 60.6°F15.9°C 60.6°F15.9°C 53.0°F11.7°C 54.6°F12.6°C
Dew Point 60.0°F15.6°C 60.0°F15.6°C 52.5°F11.4°C 54.0°F12.2°C
Winds 14.9 mph NW24.0 kmh NW 14.9 mph NW24.0 kmh NW - 6.7 mph 10.8 kmh
Wind Gusts 16.0 mph25.7 kmh 21.0 mph33.8 kmh - -
Humidity 98% 98% 98% 98%
Pressure 30.14 in1020.7 mb 30.17 in1021.7 mb 30.11 in1019.6 mb -
Precipitation - 0.11 in2.8 mm - -
Hour Temp Dew Point Humidity Winds Wind Gusts Pressure Precip Precip Rate Daily Precip Total
10:30 AM 60.6°F15.9°C 60.0°F15.6°C 98% 14.9 mph NW24.0 kmh NW 16.0 mph25.7 kmh 30.14 in1020.7 mb 0.00 in0.0 mm 0.00 in/hr0.0 mm/hr 0.11 in2.8 mm
10:00 AM 59.0°F15.0°C 58.4°F14.7°C 98% 14.8 mph NW23.8 kmh NW 21.0 mph33.8 kmh 30.14 in1020.7 mb 0.00 in0.0 mm 0.00 in/hr0.0 mm/hr 0.11 in2.8 mm
09:30 AM 58.2°F14.6°C 57.6°F14.2°C 98% 4.9 mph N7.9 kmh N 8.0 mph12.9 kmh 30.14 in1020.7 mb 0.00 in0.0 mm 0.00 in/hr0.0 mm/hr 0.11 in2.8 mm
09:00 AM 55.8°F13.2°C 55.3°F12.9°C 98% Calm Calm -- 30.14 in1020.7 mb 0.00 in0.0 mm 0.00 in/hr0.0 mm/hr 0.11 in2.8 mm
08:30 AM 53.4°F11.9°C 52.8°F11.6°C 98% 5.5 mph NNE8.9 kmh NNE 7.0 mph11.3 kmh 30.14 in1020.7 mb 0.00 in0.0 mm 0.00 in/hr0.0 mm/hr 0.11 in2.8 mm
08:00 AM 53.0°F11.7°C 52.5°F11.4°C 98% 8.1 mph NE13.0 kmh NE 9.0 mph14.5 kmh 30.14 in1020.7 mb 0.00 in0.0 mm 0.00 in/hr0.0 mm/hr 0.11 in2.8 mm
07:30 AM 53.2°F11.8°C 52.7°F11.5°C 98% 7.9 mph NE12.7 kmh NE 9.0 mph14.5 kmh 30.14 in1020.7 mb 0.00 in0.0 mm 0.00 in/hr0.0 mm/hr 0.11 in2.8 mm
07:00 AM 53.3°F11.8°C 52.8°F11.6°C 98% 5.1 mph N8.2 kmh N 7.0 mph11.3 kmh 30.13 in1020.3 mb 0.00 in0.0 mm 0.00 in/hr0.0 mm/hr 0.11 in2.8 mm
06:30 AM 53.2°F11.8°C 52.6°F11.4°C 98% 8.5 mph NNE13.7 kmh NNE 10.0 mph16.1 kmh 30.13 in1020.3 mb 0.00 in0.0 mm 0.00 in/hr0.0 mm/hr 0.11 in2.8 mm
06:00 AM 53.3°F11.8°C 52.8°F11.6°C 98% 4.7 mph NE7.6 kmh NE 7.0 mph11.3 kmh 30.12 in1020.0 mb 0.00 in0.0 mm 0.00 in/hr0.0 mm/hr 0.11 in2.8 mm
05:30 AM 53.4°F11.9°C 52.8°F11.6°C 98% 9.0 mph NNE14.5 kmh NNE 11.0 mph17.7 kmh 30.11 in1019.6 mb 0.00 in0.0 mm 0.00 in/hr0.0 mm/hr 0.11 in2.8 mm
05:00 AM 53.6°F12.0°C 53.0°F11.7°C 98% 5.7 mph NE9.2 kmh NE 9.0 mph14.5 kmh 30.11 in1019.6 mb 0.00 in0.0 mm 0.00 in/hr0.0 mm/hr 0.11 in2.8 mm
04:30 AM 54.9°F12.7°C 54.3°F12.4°C 98% 7.2 mph N11.6 kmh N 9.0 mph14.5 kmh 30.11 in1019.6 mb 0.00 in0.0 mm 0.00 in/hr0.0 mm/hr 0.11 in2.8 mm
04:00 AM 54.0°F12.2°C 53.4°F11.9°C 98% 6.7 mph NW10.8 kmh NW 9.0 mph14.5 kmh 30.11 in1019.6 mb 0.00 in0.0 mm 0.00 in/hr0.0 mm/hr 0.11 in2.8 mm
03:30 AM 54.3°F12.4°C 53.7°F12.1°C 98% 7.4 mph N11.9 kmh N 10.0 mph16.1 kmh 30.12 in1020.0 mb 0.00 in0.0 mm 0.00 in/hr0.0 mm/hr 0.11 in2.8 mm
03:00 AM 54.0°F12.2°C 53.4°F11.9°C 98% 10.3 mph NNW16.6 kmh NNW 11.0 mph17.7 kmh 30.13 in1020.3 mb 0.02 in0.5 mm 0.04 in/hr1.0 mm/hr 0.11 in2.8 mm
02:30 AM 53.7°F12.1°C 53.1°F11.7°C 98% 5.6 mph WNW9.0 kmh WNW 8.0 mph12.9 kmh 30.14 in1020.7 mb 0.01 in0.3 mm 0.02 in/hr0.5 mm/hr 0.10 in2.5 mm
02:00 AM 53.6°F12.0°C 53.0°F11.7°C 98% 4.4 mph NE7.1 kmh NE 7.0 mph11.3 kmh 30.14 in1020.7 mb 0.02 in0.5 mm 0.04 in/hr1.0 mm/hr 0.09 in2.3 mm
01:30 AM 53.6°F12.0°C 53.0°F11.7°C 98% 4.8 mph N7.7 kmh N 7.0 mph11.3 kmh 30.15 in1021.0 mb 0.07 in1.8 mm 0.14 in/hr3.6 mm/hr 0.08 in2.0 mm
01:00 AM 53.9°F12.2°C 53.3°F11.8°C 98% 7.0 mph NNE11.3 kmh NNE 9.0 mph14.5 kmh 30.16 in1021.3 mb 0.01 in0.3 mm 0.02 in/hr0.5 mm/hr 0.01 in0.3 mm
12:30 AM 53.9°F12.2°C 53.3°F11.8°C 98% 1.1 mph 1.8 kmh 4.0 mph6.4 kmh 30.16 in1021.3 mb 0.00 in0.0 mm 0.00 in/hr0.0 mm/hr 0.00 in0.0 mm
12:00 AM 54.2°F12.3°C 53.6°F12.0°C 98% 4.8 mph N7.7 kmh N 7.0 mph11.3 kmh 30.17 in1021.7 mb 0.00 in0.0 mm 0.00 in/hr0.0 mm/hr 0.00 in0.0 mm